createdAt,value
2022-12-08T00:01:23.844Z,-0.20
2022-12-08T00:03:51.030Z,-0.20
2022-12-08T00:06:43.768Z,-0.10
2022-12-08T00:09:36.373Z,-0.10
2022-12-08T00:12:05.142Z,-0.10
2022-12-08T00:14:32.677Z,-0.10
2022-12-08T00:17:00.251Z,-0.10
2022-12-08T00:19:27.340Z,-0.10
2022-12-08T00:21:54.302Z,-0.10
2022-12-08T00:24:21.318Z,-0.10
2022-12-08T00:26:48.350Z,-0.10
2022-12-08T00:29:17.530Z,-0.20
2022-12-08T00:31:44.779Z,-0.20
2022-12-08T00:34:12.293Z,-0.20
2022-12-08T00:36:39.129Z,-0.30
2022-12-08T00:39:06.297Z,-0.30
2022-12-08T00:41:51.687Z,-0.30
2022-12-08T00:44:21.266Z,-0.30
2022-12-08T00:46:48.266Z,-0.30
2022-12-08T00:49:15.349Z,-0.40
2022-12-08T00:51:42.280Z,-0.40
2022-12-08T00:54:09.205Z,-0.40
2022-12-08T00:56:36.289Z,-0.40
2022-12-08T00:59:03.779Z,-0.40
2022-12-08T01:04:34.266Z,-0.50
2022-12-08T01:07:01.139Z,-0.50
2022-12-08T01:09:27.962Z,-0.50
2022-12-08T01:11:54.851Z,-0.40
2022-12-08T01:14:21.672Z,-0.50
2022-12-08T01:16:48.557Z,-0.50
2022-12-08T01:19:15.973Z,-0.40
2022-12-08T01:21:43.026Z,-0.50
2022-12-08T01:24:11.198Z,-0.50
2022-12-08T01:26:38.051Z,-0.50
2022-12-08T01:29:04.869Z,-0.40
2022-12-08T01:34:32.331Z,-0.40
2022-12-08T01:40:00.369Z,-0.40
2022-12-08T01:42:27.179Z,-0.50
2022-12-08T01:44:55.709Z,-0.50
2022-12-08T01:47:23.082Z,-0.40
2022-12-08T01:49:49.949Z,-0.40
2022-12-08T01:55:26.126Z,-0.40
2022-12-08T01:57:54.450Z,-0.40
2022-12-08T02:00:21.590Z,-0.40
2022-12-08T02:02:54.390Z,-0.40
2022-12-08T02:05:22.305Z,-0.40
2022-12-08T02:07:49.171Z,-0.40
2022-12-08T02:10:17.045Z,-0.40
2022-12-08T02:12:43.901Z,-0.40
2022-12-08T02:15:10.920Z,-0.40
2022-12-08T02:17:43.781Z,-0.40
2022-12-08T02:20:13.338Z,-0.40
2022-12-08T02:22:43.324Z,-0.40
2022-12-08T02:25:22.304Z,-0.50
2022-12-08T02:27:54.932Z,-0.50
2022-12-08T02:30:42.070Z,-0.50
2022-12-08T02:33:08.960Z,-0.50
2022-12-08T02:35:54.538Z,-0.50
2022-12-08T02:38:30.529Z,-0.50
2022-12-08T02:40:57.325Z,-0.50
2022-12-08T02:43:27.125Z,-0.50
2022-12-08T02:45:55.729Z,-0.50
2022-12-08T02:48:22.604Z,-0.60
2022-12-08T02:50:49.461Z,-0.60
2022-12-08T02:55:44.860Z,-0.60
2022-12-08T02:58:26.814Z,-0.60
2022-12-08T03:00:57.488Z,-0.60
2022-12-08T03:03:44.566Z,-0.60
2022-12-08T03:06:22.137Z,-0.70
2022-12-08T03:08:51.637Z,-0.70
2022-12-08T03:11:22.733Z,-0.70
2022-12-08T03:13:50.984Z,-0.70
2022-12-08T03:16:19.942Z,-0.70
2022-12-08T03:18:51.555Z,-0.70
2022-12-08T03:21:18.356Z,-0.70
2022-12-08T03:23:45.288Z,-0.70
2022-12-08T03:26:13.459Z,-0.70
2022-12-08T03:28:40.284Z,-0.70
2022-12-08T03:31:07.553Z,-0.80
2022-12-08T03:33:35.895Z,-0.80
2022-12-08T03:36:02.780Z,-0.80
2022-12-08T03:38:36.924Z,-0.80
2022-12-08T03:41:18.969Z,-0.80
2022-12-08T03:43:49.156Z,-0.80
2022-12-08T03:46:16.404Z,-0.90
2022-12-08T03:48:43.375Z,-0.90
2022-12-08T03:51:10.240Z,-0.90
2022-12-08T03:53:37.026Z,-0.90
2022-12-08T03:56:04.859Z,-1.00
2022-12-08T03:58:37.042Z,-1.00
2022-12-08T04:01:04.343Z,-1.00
2022-12-08T04:03:31.163Z,-1.00
2022-12-08T04:05:58.093Z,-1.00
2022-12-08T04:08:24.941Z,-1.00
2022-12-08T04:10:51.771Z,-1.00
2022-12-08T04:13:18.560Z,-1.00
2022-12-08T04:15:48.286Z,-1.00
2022-12-08T04:18:15.189Z,-1.00
2022-12-08T04:20:42.255Z,-1.10
2022-12-08T04:23:12.019Z,-1.00
2022-12-08T04:25:39.391Z,-1.10
2022-12-08T04:28:06.840Z,-1.10
2022-12-08T04:30:33.691Z,-1.10
2022-12-08T04:33:00.528Z,-1.10
2022-12-08T04:35:27.714Z,-1.10
2022-12-08T04:37:54.584Z,-1.10
2022-12-08T04:40:21.475Z,-1.20
2022-12-08T04:42:48.300Z,-1.10
2022-12-08T04:45:15.144Z,-1.20
2022-12-08T04:47:41.988Z,-1.20
2022-12-08T04:50:08.995Z,-1.20
2022-12-08T04:52:35.824Z,-1.20
2022-12-08T04:55:02.838Z,-1.20
2022-12-08T04:57:29.639Z,-1.20
2022-12-08T04:59:56.499Z,-1.20
2022-12-08T05:05:26.701Z,-1.30
2022-12-08T05:07:53.657Z,-1.30
2022-12-08T05:10:20.563Z,-1.20
2022-12-08T05:12:47.410Z,-1.30
2022-12-08T05:15:14.276Z,-1.30
2022-12-08T05:17:41.076Z,-1.30
2022-12-08T05:20:08.138Z,-1.30
2022-12-08T05:22:34.968Z,-1.40
2022-12-08T05:25:01.769Z,-1.40
2022-12-08T05:27:28.634Z,-1.40
2022-12-08T05:29:55.475Z,-1.40
2022-12-08T05:32:22.278Z,-1.40
2022-12-08T05:34:49.059Z,-1.40
2022-12-08T05:37:15.891Z,-1.40
2022-12-08T05:39:42.705Z,-1.40
2022-12-08T05:42:09.569Z,-1.40
2022-12-08T05:44:36.372Z,-1.40
2022-12-08T05:47:03.218Z,-1.50
2022-12-08T05:49:30.037Z,-1.50
2022-12-08T05:51:56.876Z,-1.50
2022-12-08T05:54:24.156Z,-1.50
2022-12-08T05:56:50.978Z,-1.50
2022-12-08T05:59:17.836Z,-1.50
2022-12-08T06:01:44.837Z,-1.50
2022-12-08T06:04:11.694Z,-1.50
2022-12-08T06:06:38.675Z,-1.50
2022-12-08T06:09:05.563Z,-1.50
2022-12-08T06:11:32.530Z,-1.50
2022-12-08T06:13:59.407Z,-1.40
2022-12-08T06:16:26.561Z,-1.50
2022-12-08T06:18:53.591Z,-1.50
2022-12-08T06:21:20.538Z,-1.50
2022-12-08T06:23:47.971Z,-1.50
2022-12-08T06:26:14.855Z,-1.50
2022-12-08T06:28:41.697Z,-1.40
2022-12-08T06:31:09.363Z,-1.40
2022-12-08T06:33:36.319Z,-1.40
2022-12-08T06:36:03.380Z,-1.40
2022-12-08T06:38:30.313Z,-1.40
2022-12-08T06:40:57.423Z,-1.50
2022-12-08T06:46:27.947Z,-1.50
2022-12-08T06:48:54.844Z,-1.50
2022-12-08T06:51:22.900Z,-1.60
2022-12-08T06:53:49.764Z,-1.60
2022-12-08T06:56:18.809Z,-1.60
2022-12-08T06:58:50.577Z,-1.60
2022-12-08T07:01:19.023Z,-1.60
2022-12-08T07:03:46.446Z,-1.60
2022-12-08T07:06:24.213Z,-1.60
2022-12-08T07:08:51.126Z,-1.60
2022-12-08T07:11:21.558Z,-1.60
2022-12-08T07:13:49.021Z,-1.60
2022-12-08T07:16:16.086Z,-1.60
2022-12-08T07:18:44.208Z,-1.60
2022-12-08T07:21:11.635Z,-1.60
2022-12-08T07:23:38.664Z,-1.70
2022-12-08T07:26:06.308Z,-1.70
2022-12-08T07:28:33.518Z,-1.60
2022-12-08T07:31:00.376Z,-1.60
2022-12-08T07:33:27.619Z,-1.70
2022-12-08T07:35:58.282Z,-1.70
2022-12-08T07:38:25.147Z,-1.70
2022-12-08T07:40:52.261Z,-1.70
2022-12-08T07:43:19.268Z,-1.70
2022-12-08T07:45:46.168Z,-1.70
2022-12-08T07:48:13.182Z,-1.70
2022-12-08T07:50:40.043Z,-1.70
2022-12-08T07:53:07.006Z,-1.70
2022-12-08T07:55:34.013Z,-1.70
2022-12-08T07:58:00.862Z,-1.70
2022-12-08T08:00:27.889Z,-1.70
2022-12-08T08:02:54.884Z,-1.80
2022-12-08T08:05:22.453Z,-1.70
2022-12-08T08:07:49.491Z,-1.80
2022-12-08T08:10:16.363Z,-1.80
2022-12-08T08:12:43.256Z,-1.70
2022-12-08T08:15:10.327Z,-1.70
2022-12-08T08:17:37.451Z,-1.80
2022-12-08T08:20:07.397Z,-1.80
2022-12-08T08:22:34.428Z,-1.70
2022-12-08T08:25:01.270Z,-1.70
2022-12-08T08:27:28.108Z,-1.70
2022-12-08T08:29:54.967Z,-1.70
2022-12-08T08:32:21.831Z,-1.70
2022-12-08T08:34:48.641Z,-1.60
2022-12-08T08:37:15.528Z,-1.60
2022-12-08T08:39:43.207Z,-1.60
2022-12-08T08:42:10.100Z,-1.60
2022-12-08T08:44:39.053Z,-1.50
2022-12-08T08:47:05.914Z,-1.50
2022-12-08T08:49:32.783Z,-1.50
2022-12-08T08:51:59.608Z,-1.40
2022-12-08T08:57:30.264Z,-1.40
2022-12-08T08:59:57.108Z,-1.30
2022-12-08T09:02:24.114Z,-1.30
2022-12-08T09:04:51.103Z,-1.20
2022-12-08T09:07:17.999Z,-1.20
2022-12-08T09:09:45.235Z,-1.10
2022-12-08T09:12:12.375Z,-1.10
2022-12-08T09:14:39.362Z,-1.00
2022-12-08T09:17:06.522Z,-1.00
2022-12-08T09:19:33.423Z,-0.90
2022-12-08T09:22:00.299Z,-0.90
2022-12-08T09:24:27.128Z,-0.80
2022-12-08T09:26:53.960Z,-0.80
2022-12-08T09:29:20.827Z,-0.70
2022-12-08T09:31:49.193Z,-0.70
2022-12-08T09:34:16.094Z,-0.70
2022-12-08T09:36:43.023Z,-0.70
2022-12-08T09:39:09.884Z,-0.60
2022-12-08T09:41:48.589Z,-0.60
2022-12-08T09:44:36.078Z,-0.50
2022-12-08T09:47:03.594Z,-0.50
2022-12-08T09:49:34.216Z,-0.50
2022-12-08T09:52:01.192Z,-0.40
2022-12-08T09:54:34.802Z,-0.40
2022-12-08T09:57:03.694Z,-0.30
2022-12-08T09:59:31.899Z,-0.20
2022-12-08T10:01:58.963Z,-0.20
2022-12-08T10:04:26.861Z,-0.20
2022-12-08T10:07:02.671Z,-0.20
2022-12-08T10:09:48.205Z,-0.10
2022-12-08T10:12:18.226Z,-0.10
2022-12-08T10:15:04.023Z,-0.10
2022-12-08T10:17:32.417Z,-0.10
2022-12-08T10:20:04.078Z,0.00
2022-12-08T10:22:37.599Z,0.00
2022-12-08T10:25:20.380Z,0.10
2022-12-08T10:27:48.356Z,0.10
2022-12-08T10:30:15.942Z,0.20
2022-12-08T10:32:44.360Z,0.20
2022-12-08T10:35:12.268Z,0.30
2022-12-08T10:37:39.162Z,0.30
2022-12-08T10:40:10.252Z,0.40
2022-12-08T10:42:41.331Z,0.40
2022-12-08T10:45:15.386Z,0.40
2022-12-08T10:47:45.043Z,0.40
2022-12-08T10:50:24.520Z,0.50
2022-12-08T10:52:55.401Z,0.50
2022-12-08T10:55:22.433Z,0.60
2022-12-08T10:57:49.321Z,0.60
2022-12-08T11:00:17.854Z,0.60
2022-12-08T11:03:14.287Z,0.70
2022-12-08T11:05:41.998Z,0.70
2022-12-08T11:08:08.950Z,0.70
2022-12-08T11:10:37.161Z,0.70
2022-12-08T11:13:05.185Z,0.80
2022-12-08T11:15:33.525Z,0.80
2022-12-08T11:18:01.134Z,0.80
2022-12-08T11:20:27.986Z,0.90
2022-12-08T11:22:55.469Z,0.90
2022-12-08T11:25:22.345Z,0.90
2022-12-08T11:27:50.422Z,0.90
2022-12-08T11:30:18.640Z,1.00
2022-12-08T11:32:47.637Z,1.00
2022-12-08T11:35:22.876Z,1.10
2022-12-08T11:37:49.746Z,1.00
2022-12-08T11:40:18.100Z,1.10
2022-12-08T11:43:03.741Z,1.10
2022-12-08T11:45:31.559Z,1.20
2022-12-08T11:47:58.473Z,1.20
2022-12-08T11:50:51.548Z,1.20
2022-12-08T11:53:21.321Z,1.30
2022-12-08T11:55:50.652Z,1.30
2022-12-08T11:58:20.649Z,1.40
2022-12-08T12:00:47.527Z,1.40
2022-12-08T12:03:34.901Z,1.40
2022-12-08T12:06:23.944Z,1.40
2022-12-08T12:09:08.219Z,1.50
2022-12-08T12:12:09.132Z,1.50
2022-12-08T12:14:54.917Z,1.60
2022-12-08T12:17:39.868Z,1.60
2022-12-08T12:23:24.880Z,1.70
2022-12-08T12:25:55.828Z,1.70
2022-12-08T12:28:22.867Z,1.80
2022-12-08T12:30:51.720Z,1.90
2022-12-08T12:33:19.652Z,1.90
2022-12-08T12:35:48.300Z,2.00
2022-12-08T12:38:37.492Z,2.00
2022-12-08T12:41:04.380Z,2.00
2022-12-08T12:43:32.308Z,2.10
2022-12-08T12:46:17.962Z,2.10
2022-12-08T12:48:45.472Z,2.10
2022-12-08T12:51:30.765Z,2.10
2022-12-08T12:53:57.603Z,2.10
2022-12-08T12:56:43.143Z,2.10
2022-12-08T12:59:28.577Z,2.10
2022-12-08T13:01:55.636Z,2.10
2022-12-08T13:04:29.551Z,2.10
2022-12-08T13:06:56.394Z,2.20
2022-12-08T13:09:26.987Z,2.10
2022-12-08T13:11:54.792Z,2.20
2022-12-08T13:14:40.395Z,2.20
2022-12-08T13:17:08.178Z,2.20
2022-12-08T13:19:35.106Z,2.20
2022-12-08T13:22:02.113Z,2.20
2022-12-08T13:24:30.115Z,2.20
2022-12-08T13:27:05.995Z,2.20
2022-12-08T13:29:33.300Z,2.30
2022-12-08T13:32:00.139Z,2.30
2022-12-08T13:34:41.783Z,2.30
2022-12-08T13:37:08.597Z,2.30
2022-12-08T13:39:39.798Z,2.30
2022-12-08T13:42:12.810Z,2.30
2022-12-08T13:48:20.352Z,2.30
2022-12-08T13:54:16.347Z,2.30
2022-12-08T13:59:19.849Z,2.40
2022-12-08T14:01:48.147Z,2.40
2022-12-08T14:04:54.355Z,2.40
2022-12-08T14:07:04.162Z,2.40
2022-12-08T14:09:34.413Z,2.40
2022-12-08T14:12:03.600Z,2.40
2022-12-08T14:15:00.723Z,2.40
2022-12-08T14:17:19.000Z,2.40
2022-12-08T14:19:52.690Z,2.40
2022-12-08T14:22:19.617Z,2.40
2022-12-08T14:24:47.190Z,2.40
2022-12-08T14:27:15.606Z,2.40
2022-12-08T14:29:42.600Z,2.40
2022-12-08T14:32:28.556Z,2.30
2022-12-08T14:35:01.899Z,2.30
2022-12-08T14:37:31.195Z,2.40
2022-12-08T14:39:59.516Z,2.30
2022-12-08T14:42:26.746Z,2.30
2022-12-08T14:45:01.015Z,2.30
2022-12-08T14:47:31.464Z,2.20
2022-12-08T14:49:58.537Z,2.20
2022-12-08T14:52:25.343Z,2.20
2022-12-08T14:54:52.193Z,2.20
2022-12-08T14:57:19.059Z,2.20
2022-12-08T14:59:45.968Z,2.10
2022-12-08T15:02:15.565Z,2.00
2022-12-08T15:04:43.093Z,2.00
2022-12-08T15:07:19.767Z,2.00
2022-12-08T15:09:48.721Z,1.90
2022-12-08T15:12:15.733Z,1.80
2022-12-08T15:14:43.649Z,1.70
2022-12-08T15:17:28.688Z,1.70
2022-12-08T15:19:59.368Z,1.60
2022-12-08T15:22:29.289Z,1.60
2022-12-08T15:24:56.236Z,1.50
2022-12-08T15:27:23.338Z,1.40
2022-12-08T15:29:50.185Z,1.30
2022-12-08T15:32:17.851Z,1.30
2022-12-08T15:34:44.810Z,1.20
2022-12-08T15:37:21.959Z,1.20
2022-12-08T15:39:48.924Z,1.10
2022-12-08T15:42:15.748Z,1.00
2022-12-08T15:44:42.763Z,1.00
2022-12-08T15:47:19.440Z,0.90
2022-12-08T15:49:47.180Z,0.90
2022-12-08T15:52:14.794Z,0.80
2022-12-08T15:54:41.642Z,0.70
2022-12-08T15:57:48.804Z,0.70
2022-12-08T16:00:36.344Z,0.60
2022-12-08T16:03:34.191Z,0.60
2022-12-08T16:06:01.716Z,0.50
2022-12-08T16:08:56.062Z,0.40
2022-12-08T16:12:05.305Z,0.40
2022-12-08T16:17:29.960Z,0.30
2022-12-08T16:19:56.859Z,0.20
2022-12-08T16:22:54.193Z,0.20
2022-12-08T16:25:18.913Z,0.10
2022-12-08T16:28:23.050Z,0.10
2022-12-08T16:33:39.044Z,0.00
2022-12-08T16:36:05.946Z,-0.10
2022-12-08T16:38:33.038Z,-0.10
2022-12-08T16:41:18.424Z,-0.20
2022-12-08T16:43:45.272Z,-0.20
2022-12-08T16:46:19.112Z,-0.20
2022-12-08T16:48:46.215Z,-0.20
2022-12-08T16:51:15.330Z,-0.20
2022-12-08T16:53:42.290Z,-0.20
2022-12-08T16:56:09.094Z,-0.30
2022-12-08T16:58:35.908Z,-0.30
2022-12-08T17:01:02.829Z,-0.30
2022-12-08T17:03:30.379Z,-0.40
2022-12-08T17:05:57.232Z,-0.40
2022-12-08T17:08:24.119Z,-0.40
2022-12-08T17:11:07.429Z,-0.40
2022-12-08T17:13:35.187Z,-0.40
2022-12-08T17:16:02.458Z,-0.50
2022-12-08T17:18:29.399Z,-0.50
2022-12-08T17:20:56.212Z,-0.60
2022-12-08T17:23:23.110Z,-0.60
2022-12-08T17:26:00.104Z,-0.60
2022-12-08T17:28:58.384Z,-0.60
2022-12-08T17:31:14.527Z,-0.60
2022-12-08T17:33:41.586Z,-0.60
2022-12-08T17:36:09.256Z,-0.70
2022-12-08T17:38:36.068Z,-0.70
2022-12-08T17:41:04.067Z,-0.70
2022-12-08T17:43:30.972Z,-0.70
2022-12-08T17:45:58.338Z,-0.70
2022-12-08T17:48:25.549Z,-0.80
2022-12-08T17:50:52.515Z,-0.80
2022-12-08T17:53:19.441Z,-0.80
2022-12-08T17:55:53.368Z,-0.80
2022-12-08T17:58:20.467Z,-0.80
2022-12-08T18:00:47.482Z,-0.80
2022-12-08T18:03:14.442Z,-0.80
2022-12-08T18:05:41.586Z,-0.90
2022-12-08T18:08:08.478Z,-0.90
2022-12-08T18:10:35.343Z,-0.90
2022-12-08T18:13:02.235Z,-0.90
2022-12-08T18:15:29.138Z,-0.90
2022-12-08T18:17:55.979Z,-0.90
2022-12-08T18:20:22.883Z,-1.00
2022-12-08T18:22:49.712Z,-1.00
2022-12-08T18:25:16.578Z,-1.00
2022-12-08T18:27:44.262Z,-1.00
2022-12-08T18:30:12.098Z,-1.00
2022-12-08T18:32:38.921Z,-1.00
2022-12-08T18:35:06.525Z,-1.00
2022-12-08T18:37:34.065Z,-1.10
2022-12-08T18:40:01.346Z,-1.10
2022-12-08T18:42:28.416Z,-1.10
2022-12-08T18:45:02.822Z,-1.10
2022-12-08T18:47:30.351Z,-1.10
2022-12-08T18:49:57.266Z,-1.20
2022-12-08T18:52:31.022Z,-1.20
2022-12-08T18:55:06.187Z,-1.20
2022-12-08T18:57:33.883Z,-1.30
2022-12-08T19:00:02.836Z,-1.20
2022-12-08T19:02:29.835Z,-1.30
2022-12-08T19:04:56.824Z,-1.30
2022-12-08T19:07:23.810Z,-1.30
2022-12-08T19:09:50.687Z,-1.30
2022-12-08T19:12:17.555Z,-1.30
2022-12-08T19:14:44.515Z,-1.30
2022-12-08T19:17:11.452Z,-1.40
2022-12-08T19:19:38.400Z,-1.40
2022-12-08T19:22:05.343Z,-1.40
2022-12-08T19:24:34.837Z,-1.40
2022-12-08T19:27:01.717Z,-1.40
2022-12-08T19:29:28.600Z,-1.50
2022-12-08T19:31:55.459Z,-1.50
2022-12-08T19:34:22.259Z,-1.50
2022-12-08T19:36:49.219Z,-1.50
2022-12-08T19:39:35.375Z,-1.50
2022-12-08T19:42:20.884Z,-1.50
2022-12-08T19:44:53.656Z,-1.60
2022-12-08T19:47:24.545Z,-1.60
2022-12-08T19:52:56.255Z,-1.60
2022-12-08T19:55:23.730Z,-1.70
2022-12-08T19:57:50.950Z,-1.70
2022-12-08T20:00:17.996Z,-1.70
2022-12-08T20:02:45.002Z,-1.70
2022-12-08T20:05:11.919Z,-1.70
2022-12-08T20:07:38.800Z,-1.70
2022-12-08T20:10:06.857Z,-1.80
2022-12-08T20:12:33.978Z,-1.80
2022-12-08T20:15:00.824Z,-1.80
2022-12-08T20:17:27.800Z,-1.80
2022-12-08T20:19:54.764Z,-1.80
2022-12-08T20:22:21.594Z,-1.80
2022-12-08T20:24:57.227Z,-1.90
2022-12-08T20:27:26.886Z,-1.90
2022-12-08T20:29:53.819Z,-1.90
2022-12-08T20:32:20.683Z,-1.90
2022-12-08T20:34:47.587Z,-1.90
2022-12-08T20:37:14.408Z,-1.90
2022-12-08T20:39:41.305Z,-2.00
2022-12-08T20:42:10.600Z,-2.00
2022-12-08T20:44:43.393Z,-2.00
2022-12-08T20:47:11.185Z,-2.00
2022-12-08T20:49:38.421Z,-2.00
2022-12-08T20:52:05.324Z,-2.00
2022-12-08T20:54:32.229Z,-2.00
2022-12-08T20:56:59.091Z,-2.10
2022-12-08T20:59:27.000Z,-2.10
2022-12-08T21:01:54.154Z,-2.10
2022-12-08T21:04:21.271Z,-2.10
2022-12-08T21:06:48.363Z,-2.10
2022-12-08T21:09:15.462Z,-2.20
2022-12-08T21:11:42.463Z,-2.20
2022-12-08T21:14:09.412Z,-2.20
2022-12-08T21:16:36.527Z,-2.20
2022-12-08T21:19:03.611Z,-2.20
2022-12-08T21:21:30.605Z,-2.20
2022-12-08T21:23:57.650Z,-2.20
2022-12-08T21:26:26.411Z,-2.20
2022-12-08T21:28:55.002Z,-2.20
2022-12-08T21:31:22.263Z,-2.20
2022-12-08T21:33:49.283Z,-2.30
2022-12-08T21:36:17.747Z,-2.30
2022-12-08T21:38:44.704Z,-2.30
2022-12-08T21:41:13.222Z,-2.30
2022-12-08T21:43:40.241Z,-2.30
2022-12-08T21:46:07.357Z,-2.40
2022-12-08T21:48:34.227Z,-2.40
2022-12-08T21:51:04.995Z,-2.40
2022-12-08T21:53:32.091Z,-2.30
2022-12-08T21:55:59.122Z,-2.40
2022-12-08T21:58:26.525Z,-2.40
2022-12-08T22:00:53.596Z,-2.40
2022-12-08T22:03:20.808Z,-2.40
2022-12-08T22:05:47.802Z,-2.40
2022-12-08T22:08:14.917Z,-2.40
2022-12-08T22:10:46.618Z,-2.50
2022-12-08T22:13:13.572Z,-2.50
2022-12-08T22:15:40.629Z,-2.50
2022-12-08T22:18:08.627Z,-2.50
2022-12-08T22:20:40.842Z,-2.50
2022-12-08T22:23:10.636Z,-2.50
2022-12-08T22:25:37.626Z,-2.50
2022-12-08T22:28:04.706Z,-2.60
2022-12-08T22:30:37.246Z,-2.60
2022-12-08T22:33:05.806Z,-2.60
2022-12-08T22:35:32.659Z,-2.50
2022-12-08T22:37:59.566Z,-2.50
2022-12-08T22:40:26.338Z,-2.60
2022-12-08T22:42:53.148Z,-2.60
2022-12-08T22:45:20.100Z,-2.60
2022-12-08T22:47:47.023Z,-2.60
2022-12-08T22:50:14.050Z,-2.70
2022-12-08T22:52:40.914Z,-2.60
2022-12-08T22:55:08.068Z,-2.60
2022-12-08T22:57:35.119Z,-2.60
2022-12-08T23:00:02.222Z,-2.70
2022-12-08T23:02:29.333Z,-2.70
2022-12-08T23:04:56.983Z,-2.70
2022-12-08T23:07:23.975Z,-2.70
2022-12-08T23:09:50.799Z,-2.70
2022-12-08T23:12:17.608Z,-2.70
2022-12-08T23:14:44.553Z,-2.80
2022-12-08T23:17:11.415Z,-2.80
2022-12-08T23:19:38.685Z,-2.80
2022-12-08T23:22:05.791Z,-2.80
2022-12-08T23:24:32.642Z,-2.80
2022-12-08T23:26:59.445Z,-2.80
2022-12-08T23:29:26.406Z,-2.90
2022-12-08T23:31:53.285Z,-2.90
2022-12-08T23:34:20.574Z,-2.90
2022-12-08T23:36:47.641Z,-2.90
2022-12-08T23:39:14.483Z,-2.90
2022-12-08T23:41:41.429Z,-3.00
2022-12-08T23:44:09.246Z,-2.90
2022-12-08T23:46:36.219Z,-2.90
2022-12-08T23:49:03.478Z,-2.90
2022-12-08T23:51:30.318Z,-2.90
2022-12-08T23:53:57.156Z,-2.90
2022-12-08T23:56:29.871Z,-3.00
2022-12-08T23:58:57.198Z,-3.00
